Weather History for PARC - August, 2013

Change the Weather History Date:

Saturday, August 10, 2013

  Actual Average Record
Temperature  
Mean Temperature 58 °F -  
Max Temperature 64 °F - - ()
Min Temperature 51 °F - - ()
Degree Days  
Heating Degree Days 8    
Growing Degree Days 8 (Base 50)    
Moisture  
Dew Point 46 °F    
Average Humidity 66    
Maximum Humidity 88    
Minimum Humidity 42    
Precipitation  
Precipitation 0.02 in - - ()
Sea Level Pressure  
Sea Level Pressure 29.81 in    
Wind  
Wind Speed 6 mph (SW)    
Max Wind Speed 12 mph    
Max Gust Speed 16 mph    
Visibility 9 miles    
Events      
T = Trace of Precipitation, MM = Missing Value Source: NWS Daily Summary

Daily Weather History Graph

Daily Weather History Graph

Search for Another Location

Airport or City:

Trip Planner

Search our weather history database for the weather conditions in past years. The results will help you decide how hot, cold, wet, or windy it might be!

Date:

Astronomy

Aug. 10, 2013 Rise Set
Actual Time 4:41 AM AKDT 10:50 PM AKDT
Civil Twilight 2:35 AM AKDT 12:47 AM AKDT
Nautical Twilight Sun does not set Sun does not set
Astronomical Twilight Sun does not set Sun does not set
Moon 11:15 AM AKDT (8/10) 9:49 PM AKDT (8/10)
Length of Visible Light 22h 12m
Length of Day
18h 09m
Waxing Crescent, 15% of the Moon is Illuminated
Aug 10
Waxing Crescent
Aug 14
First Quarter
Aug 20
Full
Aug 28
Last Quarter
Sep 5
New

Hourly Weather History & Observations

Time (AKDT) Temp. Dew Point Humidity Pressure Visibility Wind Dir Wind Speed Gust Speed Precip Events Conditions
12:16 AM 57.2 °F 44.6 °F 63% 29.68 in 10.0 mi South 4.6 mph - N/A   Mostly Cloudy
12:36 AM 57.2 °F 46.4 °F 67% 29.69 in 10.0 mi SW 4.6 mph - N/A   Mostly Cloudy
12:56 AM 57.2 °F 46.4 °F 67% 29.69 in 10.0 mi SW 3.5 mph - N/A   Mostly Cloudy
1:16 AM 57.2 °F 48.2 °F 72% 29.69 in 10.0 mi SW 3.5 mph - N/A   Mostly Cloudy
1:36 AM 57.2 °F 44.6 °F 63% 29.70 in 10.0 mi WSW 5.8 mph - N/A   Mostly Cloudy
1:56 AM 57.2 °F 46.4 °F 67% 29.71 in 10.0 mi SW 6.9 mph - N/A   Overcast
2:16 AM 55.4 °F 44.6 °F 67% 29.71 in 10.0 mi WSW 8.1 mph - N/A   Overcast
2:36 AM 55.4 °F 46.4 °F 72% 29.72 in 10.0 mi WSW 9.2 mph - N/A   Overcast
2:56 AM 53.6 °F 46.4 °F 77% 29.73 in 10.0 mi WSW 6.9 mph - N/A   Overcast
3:16 AM 53.6 °F 46.4 °F 77% 29.73 in 10.0 mi WSW 5.8 mph - N/A   Overcast
3:36 AM 53.6 °F 46.4 °F 77% 29.74 in 9.0 mi WSW 6.9 mph - N/A   Overcast
3:56 AM 53.6 °F 48.2 °F 82% 29.74 in 7.0 mi WSW 6.9 mph - 0.01 in   Overcast
4:16 AM 51.8 °F 48.2 °F 88% 29.75 in 8.0 mi WSW 5.8 mph - N/A   Overcast
4:36 AM 51.8 °F 48.2 °F 88% 29.75 in 7.0 mi WSW 8.1 mph - N/A   Overcast
4:56 AM 51.8 °F 48.2 °F 88% 29.75 in 7.0 mi SW 5.8 mph - N/A   Overcast
5:16 AM 51.8 °F 48.2 °F 88% 29.75 in 7.0 mi SW 5.8 mph - N/A   Overcast
5:36 AM 51.8 °F 48.2 °F 88% 29.75 in 5.0 mi SW 5.8 mph - N/A   Overcast
5:56 AM 51.8 °F 48.2 °F 88% 29.75 in 6.0 mi SW 5.8 mph - N/A   Overcast
6:16 AM 51.8 °F 48.2 °F 88% 29.75 in 7.0 mi SW 5.8 mph - N/A   Overcast
6:36 AM 51.8 °F 48.2 °F 88% 29.75 in 7.0 mi SW 5.8 mph - N/A   Overcast
6:56 AM 51.8 °F 48.2 °F 88% 29.76 in 7.0 mi SW 5.8 mph - N/A   Overcast
7:16 AM 51.8 °F 48.2 °F 88% 29.76 in 6.0 mi SW 5.8 mph - N/A   Overcast
7:36 AM 51.8 °F 48.2 °F 88% 29.77 in 7.0 mi WSW 5.8 mph - N/A   Overcast
7:56 AM 51.8 °F 48.2 °F 88% 29.77 in 8.0 mi SW 3.5 mph - N/A   Overcast
8:16 AM 53.6 °F 48.2 °F 82% 29.77 in 8.0 mi SSW 3.5 mph - N/A   Mostly Cloudy
8:36 AM 53.6 °F 48.2 °F 82% 29.78 in 8.0 mi SW 4.6 mph - N/A   Scattered Clouds
8:56 AM 53.6 °F 48.2 °F 82% 29.78 in 9.0 mi SW 5.8 mph - N/A   Partly Cloudy
9:16 AM 55.4 °F 50.0 °F 82% 29.79 in 10.0 mi SW 6.9 mph - N/A   Clear
9:36 AM 55.4 °F 50.0 °F 82% 29.80 in 10.0 mi SW 6.9 mph - N/A   Clear
9:56 AM 55.4 °F 48.2 °F 77% 29.80 in 10.0 mi WSW 9.2 mph - N/A   Clear
10:16 AM 57.2 °F 48.2 °F 72% 29.80 in 10.0 mi WSW 9.2 mph - N/A   Clear
10:36 AM 57.2 °F 48.2 °F 72% 29.81 in 10.0 mi WSW 6.9 mph - N/A   Clear
10:56 AM 59.0 °F 48.2 °F 67% 29.81 in 10.0 mi West 9.2 mph - N/A   Mostly Cloudy
11:16 AM 60.8 °F 46.4 °F 59% 29.81 in 10.0 mi WSW 5.8 mph - N/A   Scattered Clouds
11:36 AM 60.8 °F 46.4 °F 59% 29.81 in 10.0 mi WSW 6.9 mph - N/A   Partly Cloudy
11:56 AM 60.8 °F 46.4 °F 59% 29.82 in 10.0 mi WSW 6.9 mph - N/A   Clear
12:16 PM 62.6 °F 46.4 °F 55% 29.82 in 10.0 mi West 6.9 mph - N/A   Clear
12:36 PM 62.6 °F 44.6 °F 52% 29.83 in 10.0 mi SW 5.8 mph - N/A   Clear
12:56 PM 62.6 °F 44.6 °F 52% 29.83 in 10.0 mi SW 5.8 mph - N/A   Clear
1:16 PM 64.4 °F 42.8 °F 45% 29.83 in 10.0 mi South 6.9 mph - N/A   Clear
1:36 PM 64.4 °F 42.8 °F 45% 29.83 in 10.0 mi SSW 5.8 mph - N/A   Clear
1:56 PM 64.4 °F 44.6 °F 49% 29.83 in 10.0 mi SSW 5.8 mph - N/A   Clear
2:16 PM 64.4 °F 42.8 °F 45% 29.83 in 10.0 mi WSW 6.9 mph - N/A   Partly Cloudy
2:36 PM 64.4 °F 41.0 °F 42% 29.83 in 10.0 mi SW 4.6 mph - N/A   Mostly Cloudy
2:56 PM 64.4 °F 42.8 °F 45% 29.84 in 10.0 mi SW 5.8 mph - N/A   Mostly Cloudy
3:16 PM 64.4 °F 44.6 °F 49% 29.83 in 10.0 mi West 6.9 mph - N/A   Overcast
3:36 PM 64.4 °F 42.8 °F 45% 29.84 in 10.0 mi SW 8.1 mph - N/A   Scattered Clouds
3:56 PM 64.4 °F 44.6 °F 49% 29.84 in 10.0 mi SSW 9.2 mph - N/A   Scattered Clouds
4:16 PM 64.4 °F 44.6 °F 49% 29.84 in 10.0 mi SW 9.2 mph - N/A   Mostly Cloudy
4:36 PM 64.4 °F 42.8 °F 45% 29.84 in 10.0 mi SW 6.9 mph - N/A   Scattered Clouds
4:56 PM 64.4 °F 42.8 °F 45% 29.84 in 10.0 mi SSW 9.2 mph - N/A   Clear
5:16 PM 64.4 °F 42.8 °F 45% 29.84 in 10.0 mi SSW 10.4 mph - N/A   Scattered Clouds
5:36 PM 64.4 °F 44.6 °F 49% 29.85 in 10.0 mi SSW 5.8 mph - N/A   Mostly Cloudy
5:56 PM 64.4 °F 44.6 °F 49% 29.85 in 10.0 mi SW 11.5 mph 16.1 mph N/A   Mostly Cloudy
6:16 PM 62.6 °F 44.6 °F 52% 29.85 in 10.0 mi SSW 5.8 mph - N/A   Mostly Cloudy
6:36 PM 62.6 °F 44.6 °F 52% 29.85 in 10.0 mi SW 10.4 mph - N/A   Overcast
6:56 PM 62.6 °F 44.6 °F 52% 29.86 in 10.0 mi SW 8.1 mph - N/A   Overcast
7:16 PM 62.6 °F 44.6 °F 52% 29.86 in 10.0 mi WSW 5.8 mph - N/A   Mostly Cloudy
7:36 PM 60.8 °F 46.4 °F 59% 29.86 in 10.0 mi WSW 5.8 mph - N/A   Overcast
7:56 PM 60.8 °F 46.4 °F 59% 29.87 in 10.0 mi WSW 5.8 mph - N/A   Overcast
8:16 PM 60.8 °F 46.4 °F 59% 29.87 in 10.0 mi SW 5.8 mph - N/A   Overcast
8:36 PM 60.8 °F 46.4 °F 59% 29.87 in 10.0 mi WSW 3.5 mph - N/A   Overcast
8:56 PM 59.0 °F 46.4 °F 63% 29.87 in 10.0 mi WSW 4.6 mph - N/A   Overcast
9:16 PM 59.0 °F 46.4 °F 63% 29.88 in 10.0 mi SW 4.6 mph - N/A   Overcast
9:36 PM 59.0 °F 46.4 °F 63% 29.89 in 10.0 mi SW 5.8 mph - N/A   Overcast
9:56 PM 59.0 °F 46.4 °F 63% 29.90 in 10.0 mi WSW 3.5 mph - N/A   Overcast
10:16 PM 57.2 °F 46.4 °F 67% 29.89 in 10.0 mi WSW 4.6 mph - N/A   Overcast
10:36 PM 57.2 °F 46.4 °F 67% 29.90 in 10.0 mi WSW 8.1 mph - N/A   Overcast
10:56 PM 55.4 °F 46.4 °F 72% 29.90 in 10.0 mi WSW 6.9 mph - N/A   Overcast
11:16 PM 55.4 °F 46.4 °F 72% 29.91 in 10.0 mi SSW 6.9 mph - N/A   Overcast
11:36 PM 53.6 °F 48.2 °F 82% 29.92 in 10.0 mi SSW 5.8 mph - 0.01 in   Overcast
11:56 PM 53.6 °F 48.2 °F 82% 29.92 in 10.0 mi SSW 4.6 mph - 0.01 in   Overcast